sensor_id;sensor_type;location;lat;lon;timestamp;pressure;altitude;pressure_sealevel;temperature;humidity
52719;BME280;38616;42.140;24.760;2023-06-10T00:02:04;99014.09;;;20.58;63.66
52719;BME280;38616;42.140;24.760;2023-06-10T00:04:29;99009.97;;;20.48;64.07
52719;BME280;38616;42.140;24.760;2023-06-10T00:06:55;99015.66;;;19.87;66.25
52719;BME280;38616;42.140;24.760;2023-06-10T00:09:22;99016.75;;;19.67;66.63
52719;BME280;38616;42.140;24.760;2023-06-10T00:11:50;99009.81;;;20.05;66.04
52719;BME280;38616;42.140;24.760;2023-06-10T00:14:15;99005.53;;;20.07;65.46
52719;BME280;38616;42.140;24.760;2023-06-10T00:16:41;99009.66;;;20.33;64.53
52719;BME280;38616;42.140;24.760;2023-06-10T00:19:10;99005.53;;;20.63;63.67
52719;BME280;38616;42.140;24.760;2023-06-10T00:21:39;99004.00;;;20.85;62.81
52719;BME280;38616;42.140;24.760;2023-06-10T00:24:07;98999.88;;;20.95;62.38
52719;BME280;38616;42.140;24.760;2023-06-10T00:26:35;98998.47;;;21.05;61.72
52719;BME280;38616;42.140;24.760;2023-06-10T00:29:00;98998.84;;;21.03;61.74
52719;BME280;38616;42.140;24.760;2023-06-10T00:31:29;99001.47;;;21.16;61.18
52719;BME280;38616;42.140;24.760;2023-06-10T00:33:55;98987.53;;;21.08;61.15
52719;BME280;38616;42.140;24.760;2023-06-10T00:36:20;99012.91;;;20.39;63.30
52719;BME280;38616;42.140;24.760;2023-06-10T00:38:46;99007.22;;;19.80;65.65
52719;BME280;38616;42.140;24.760;2023-06-10T00:41:11;98998.06;;;19.76;66.07
52719;BME280;38616;42.140;24.760;2023-06-10T00:43:37;98998.69;;;19.85;65.73
52719;BME280;38616;42.140;24.760;2023-06-10T00:46:05;99002.09;;;19.95;65.45
52719;BME280;38616;42.140;24.760;2023-06-10T00:48:31;98994.88;;;20.06;64.81
52719;BME280;38616;42.140;24.760;2023-06-10T00:50:57;98996.25;;;20.16;64.59
52719;BME280;38616;42.140;24.760;2023-06-10T00:53:23;98998.88;;;20.28;64.07
52719;BME280;38616;42.140;24.760;2023-06-10T00:55:50;99003.97;;;19.90;65.07
52719;BME280;38616;42.140;24.760;2023-06-10T00:58:15;98994.59;;;19.95;65.18
52719;BME280;38616;42.140;24.760;2023-06-10T01:00:41;98998.22;;;20.35;64.09
52719;BME280;38616;42.140;24.760;2023-06-10T01:03:07;98992.06;;;20.22;63.64
52719;BME280;38616;42.140;24.760;2023-06-10T01:05:36;99010.00;;;20.32;63.92
52719;BME280;38616;42.140;24.760;2023-06-10T01:08:19;99007.75;;;20.37;63.38
52719;BME280;38616;42.140;24.760;2023-06-10T01:10:54;99008.03;;;20.32;63.33
52719;BME280;38616;42.140;24.760;2023-06-10T01:13:22;99005.94;;;20.26;63.25
52719;BME280;38616;42.140;24.760;2023-06-10T01:15:50;99004.78;;;20.27;63.57
52719;BME280;38616;42.140;24.760;2023-06-10T01:18:16;99015.59;;;20.35;63.06
52719;BME280;38616;42.140;24.760;2023-06-10T01:20:43;99018.38;;;20.55;62.65
52719;BME280;38616;42.140;24.760;2023-06-10T01:23:12;99009.13;;;20.47;62.93
52719;BME280;38616;42.140;24.760;2023-06-10T01:25:39;99005.94;;;20.26;63.65
52719;BME280;38616;42.140;24.760;2023-06-10T01:30:35;99008.53;;;20.18;63.42
52719;BME280;38616;42.140;24.760;2023-06-10T01:33:02;99013.00;;;20.07;64.13
52719;BME280;38616;42.140;24.760;2023-06-10T01:35:33;99015.84;;;20.11;64.42
52719;BME280;38616;42.140;24.760;2023-06-10T01:38:02;99011.53;;;20.29;63.82
52719;BME280;38616;42.140;24.760;2023-06-10T01:40:29;99013.63;;;20.16;63.69
52719;BME280;38616;42.140;24.760;2023-06-10T01:42:55;99017.84;;;20.30;63.42
52719;BME280;38616;42.140;24.760;2023-06-10T01:45:20;99015.38;;;20.25;63.36
52719;BME280;38616;42.140;24.760;2023-06-10T01:47:46;99014.50;;;20.20;63.56
52719;BME280;38616;42.140;24.760;2023-06-10T01:50:11;99009.47;;;20.26;63.41
52719;BME280;38616;42.140;24.760;2023-06-10T01:52:37;99011.28;;;20.18;63.49
52719;BME280;38616;42.140;24.760;2023-06-10T01:55:03;99013.44;;;20.09;64.03
52719;BME280;38616;42.140;24.760;2023-06-10T01:57:28;99013.19;;;19.98;64.40
52719;BME280;38616;42.140;24.760;2023-06-10T01:59:54;99019.78;;;19.77;65.59
52719;BME280;38616;42.140;24.760;2023-06-10T02:02:19;99021.66;;;19.73;65.12
52719;BME280;38616;42.140;24.760;2023-06-10T02:04:47;99014.44;;;19.69;65.25
52719;BME280;38616;42.140;24.760;2023-06-10T02:07:12;99023.13;;;19.71;65.42
52719;BME280;38616;42.140;24.760;2023-06-10T02:09:37;99017.16;;;20.17;63.92
52719;BME280;38616;42.140;24.760;2023-06-10T02:12:04;99019.91;;;20.52;62.73
52719;BME280;38616;42.140;24.760;2023-06-10T02:14:31;99025.53;;;20.40;63.16
52719;BME280;38616;42.140;24.760;2023-06-10T02:16:57;99025.53;;;20.40;63.09
52719;BME280;38616;42.140;24.760;2023-06-10T02:19:23;99017.50;;;20.51;62.71
52719;BME280;38616;42.140;24.760;2023-06-10T02:21:49;99019.16;;;20.56;62.65
52719;BME280;38616;42.140;24.760;2023-06-10T02:24:14;99022.91;;;20.83;61.43
52719;BME280;38616;42.140;24.760;2023-06-10T02:26:40;99020.22;;;20.87;61.37
52719;BME280;38616;42.140;24.760;2023-06-10T02:29:06;99014.13;;;20.77;61.51
52719;BME280;38616;42.140;24.760;2023-06-10T02:31:31;99017.38;;;20.83;61.16
52719;BME280;38616;42.140;24.760;2023-06-10T02:33:56;99019.66;;;20.77;61.47
52719;BME280;38616;42.140;24.760;2023-06-10T02:36:22;99013.47;;;20.64;61.73
52719;BME280;38616;42.140;24.760;2023-06-10T02:38:49;99020.19;;;20.67;61.70
52719;BME280;38616;42.140;24.760;2023-06-10T02:41:15;99020.78;;;20.76;61.50
52719;BME280;38616;42.140;24.760;2023-06-10T02:43:40;99029.00;;;20.73;61.49
52719;BME280;38616;42.140;24.760;2023-06-10T02:46:05;99023.25;;;20.62;61.57
52719;BME280;38616;42.140;24.760;2023-06-10T02:48:31;99027.59;;;20.63;61.84
52719;BME280;38616;42.140;24.760;2023-06-10T02:50:56;99023.19;;;20.58;61.50
52719;BME280;38616;42.140;24.760;2023-06-10T02:53:22;99031.03;;;20.56;61.76
52719;BME280;38616;42.140;24.760;2023-06-10T02:55:47;99032.94;;;20.36;62.53
52719;BME280;38616;42.140;24.760;2023-06-10T02:58:13;99023.59;;;20.41;62.41
52719;BME280;38616;42.140;24.760;2023-06-10T03:00:38;99031.66;;;20.49;61.91
52719;BME280;38616;42.140;24.760;2023-06-10T03:03:05;99033.53;;;20.45;61.97
52719;BME280;38616;42.140;24.760;2023-06-10T03:05:31;99042.47;;;20.38;62.24
52719;BME280;38616;42.140;24.760;2023-06-10T03:07:56;99037.47;;;20.64;61.52
52719;BME280;38616;42.140;24.760;2023-06-10T03:10:21;99038.44;;;20.72;61.17
52719;BME280;38616;42.140;24.760;2023-06-10T03:12:47;99041.41;;;20.63;61.39
52719;BME280;38616;42.140;24.760;2023-06-10T03:15:12;99043.06;;;20.48;62.12
52719;BME280;38616;42.140;24.760;2023-06-10T03:17:38;99049.00;;;20.50;62.17
52719;BME280;38616;42.140;24.760;2023-06-10T03:20:04;99047.31;;;20.45;61.79
52719;BME280;38616;42.140;24.760;2023-06-10T03:22:31;99042.22;;;20.28;62.33
52719;BME280;38616;42.140;24.760;2023-06-10T03:24:56;99047.31;;;20.45;62.18
52719;BME280;38616;42.140;24.760;2023-06-10T03:27:22;99051.13;;;20.57;61.62
52719;BME280;38616;42.140;24.760;2023-06-10T03:29:48;99049.78;;;20.31;62.26
52719;BME280;38616;42.140;24.760;2023-06-10T03:32:13;99045.44;;;20.30;62.34
52719;BME280;38616;42.140;24.760;2023-06-10T03:34:39;99043.63;;;20.37;62.10
52719;BME280;38616;42.140;24.760;2023-06-10T03:37:05;99045.56;;;20.37;62.28
52719;BME280;38616;42.140;24.760;2023-06-10T03:39:30;99042.22;;;20.63;61.58
52719;BME280;38616;42.140;24.760;2023-06-10T03:41:56;99036.91;;;20.74;60.98
52719;BME280;38616;42.140;24.760;2023-06-10T03:44:24;99043.09;;;20.87;60.34
52719;BME280;38616;42.140;24.760;2023-06-10T03:46:51;99046.53;;;21.00;60.35
52719;BME280;38616;42.140;24.760;2023-06-10T03:49:17;99048.84;;;20.98;60.57
52719;BME280;38616;42.140;24.760;2023-06-10T03:51:42;99054.09;;;20.84;60.91
52719;BME280;38616;42.140;24.760;2023-06-10T03:54:08;99054.56;;;20.89;61.11
52719;BME280;38616;42.140;24.760;2023-06-10T03:56:33;99050.81;;;20.98;61.23
52719;BME280;38616;42.140;24.760;2023-06-10T03:58:59;99044.78;;;21.11;60.68
52719;BME280;38616;42.140;24.760;2023-06-10T04:01:24;99051.91;;;21.13;60.79
52719;BME280;38616;42.140;24.760;2023-06-10T04:03:49;99044.94;;;20.99;61.12
52719;BME280;38616;42.140;24.760;2023-06-10T04:06:16;99044.50;;;20.97;61.27
52719;BME280;38616;42.140;24.760;2023-06-10T04:08:42;99050.81;;;20.98;61.47
52719;BME280;38616;42.140;24.760;2023-06-10T04:11:08;99042.81;;;20.92;61.58
52719;BME280;38616;42.140;24.760;2023-06-10T04:13:34;99042.31;;;21.06;61.12
52719;BME280;38616;42.140;24.760;2023-06-10T04:15:59;99036.22;;;20.97;61.21
52719;BME280;38616;42.140;24.760;2023-06-10T04:18:25;99045.22;;;20.94;61.12
52719;BME280;38616;42.140;24.760;2023-06-10T04:20:51;99048.63;;;21.07;60.92
52719;BME280;38616;42.140;24.760;2023-06-10T04:23:16;99047.69;;;21.19;60.28
52719;BME280;38616;42.140;24.760;2023-06-10T04:25:42;99043.03;;;21.03;60.71
52719;BME280;38616;42.140;24.760;2023-06-10T04:28:10;99035.47;;;21.00;60.80
52719;BME280;38616;42.140;24.760;2023-06-10T04:30:35;99044.78;;;21.11;60.65
52719;BME280;38616;42.140;24.760;2023-06-10T04:33:01;99046.38;;;21.13;60.48
52719;BME280;38616;42.140;24.760;2023-06-10T04:35:26;99044.78;;;21.11;60.59
52719;BME280;38616;42.140;24.760;2023-06-10T04:37:53;99042.69;;;21.28;60.15
52719;BME280;38616;42.140;24.760;2023-06-10T04:40:18;99036.31;;;21.24;60.30
52719;BME280;38616;42.140;24.760;2023-06-10T04:42:44;99021.16;;;21.37;59.93
52719;BME280;38616;42.140;24.760;2023-06-10T04:45:10;99031.84;;;21.39;59.92
52719;BME280;38616;42.140;24.760;2023-06-10T04:47:35;99027.19;;;21.43;59.52
52719;BME280;38616;42.140;24.760;2023-06-10T04:50:01;99035.06;;;21.41;59.71
52719;BME280;38616;42.140;24.760;2023-06-10T04:52:27;99026.75;;;21.41;59.73
52719;BME280;38616;42.140;24.760;2023-06-10T04:54:53;99025.78;;;21.53;59.22
52719;BME280;38616;42.140;24.760;2023-06-10T04:57:19;99025.84;;;21.57;58.91
52719;BME280;38616;42.140;24.760;2023-06-10T04:59:46;99036.78;;;21.73;58.51
52719;BME280;38616;42.140;24.760;2023-06-10T05:02:11;99029.38;;;21.77;58.58
52719;BME280;38616;42.140;24.760;2023-06-10T05:04:36;99035.66;;;21.77;57.88
52719;BME280;38616;42.140;24.760;2023-06-10T05:07:02;99032.97;;;21.58;58.41
52719;BME280;38616;42.140;24.760;2023-06-10T05:09:27;99036.91;;;21.57;58.58
52719;BME280;38616;42.140;24.760;2023-06-10T05:11:54;99035.56;;;21.70;58.09
52719;BME280;38616;42.140;24.760;2023-06-10T05:14:19;99037.53;;;21.69;58.19
52719;BME280;38616;42.140;24.760;2023-06-10T05:16:47;99038.63;;;21.65;58.30
52719;BME280;38616;42.140;24.760;2023-06-10T05:19:12;99033.03;;;21.61;58.22
52719;BME280;38616;42.140;24.760;2023-06-10T05:21:38;99035.97;;;21.49;58.62
52719;BME280;38616;42.140;24.760;2023-06-10T05:24:03;99034.91;;;21.57;58.31
52719;BME280;38616;42.140;24.760;2023-06-10T05:26:29;99026.78;;;21.64;57.29
52719;BME280;38616;42.140;24.760;2023-06-10T05:28:59;99031.69;;;21.75;57.48
52719;BME280;38616;42.140;24.760;2023-06-10T05:31:24;99037.69;;;22.04;56.69
52719;BME280;38616;42.140;24.760;2023-06-10T05:33:50;99028.75;;;21.64;57.54
52719;BME280;38616;42.140;24.760;2023-06-10T05:36:15;99024.31;;;21.59;57.90
52719;BME280;38616;42.140;24.760;2023-06-10T05:38:40;99029.94;;;21.63;56.90
52719;BME280;38616;42.140;24.760;2023-06-10T05:41:06;99026.88;;;21.48;56.70
52719;BME280;38616;42.140;24.760;2023-06-10T05:43:31;99037.06;;;21.44;58.22
52719;BME280;38616;42.140;24.760;2023-06-10T05:45:59;99026.34;;;21.62;58.08
52719;BME280;38616;42.140;24.760;2023-06-10T05:48:24;99035.66;;;21.54;58.63
52719;BME280;38616;42.140;24.760;2023-06-10T05:50:50;99027.84;;;21.36;59.55
52719;BME280;38616;42.140;24.760;2023-06-10T05:53:15;99036.22;;;21.40;59.65
52719;BME280;38616;42.140;24.760;2023-06-10T05:55:42;99034.19;;;21.37;59.69
52719;BME280;38616;42.140;24.760;2023-06-10T05:58:08;99032.47;;;21.75;58.61
52719;BME280;38616;42.140;24.760;2023-06-10T06:00:34;99044.13;;;21.41;58.80
52719;BME280;38616;42.140;24.760;2023-06-10T06:02:59;99040.84;;;21.55;58.10
52719;BME280;38616;42.140;24.760;2023-06-10T06:05:25;99042.22;;;21.46;57.47
52719;BME280;38616;42.140;24.760;2023-06-10T06:07:50;99050.84;;;21.87;56.25
52719;BME280;38616;42.140;24.760;2023-06-10T06:10:17;99045.06;;;22.23;55.17
52719;BME280;38616;42.140;24.760;2023-06-10T06:12:43;99051.59;;;22.38;54.02
52719;BME280;38616;42.140;24.760;2023-06-10T06:15:09;99054.22;;;22.27;53.84
52719;BME280;38616;42.140;24.760;2023-06-10T06:17:35;99059.31;;;21.98;54.88
52719;BME280;38616;42.140;24.760;2023-06-10T06:20:03;99056.31;;;21.83;56.35
52719;BME280;38616;42.140;24.760;2023-06-10T06:22:28;99046.94;;;21.88;56.19
52719;BME280;38616;42.140;24.760;2023-06-10T06:24:53;99052.34;;;22.35;54.97
52719;BME280;38616;42.140;24.760;2023-06-10T06:27:19;99045.66;;;22.63;54.90
52719;BME280;38616;42.140;24.760;2023-06-10T06:29:44;99049.06;;;22.25;55.38
52719;BME280;38616;42.140;24.760;2023-06-10T06:32:10;99047.56;;;22.32;55.97
52719;BME280;38616;42.140;24.760;2023-06-10T06:34:35;99051.16;;;22.09;56.35
52719;BME280;38616;42.140;24.760;2023-06-10T06:37:00;99039.13;;;22.21;55.96
52719;BME280;38616;42.140;24.760;2023-06-10T06:39:26;99036.06;;;22.56;55.54
52719;BME280;38616;42.140;24.760;2023-06-10T06:41:51;99039.53;;;22.80;55.05
52719;BME280;38616;42.140;24.760;2023-06-10T06:44:17;99031.84;;;23.00;54.77
52719;BME280;38616;42.140;24.760;2023-06-10T06:46:42;99028.97;;;22.59;55.09
52719;BME280;38616;42.140;24.760;2023-06-10T06:49:07;99031.31;;;22.57;54.38
52719;BME280;38616;42.140;24.760;2023-06-10T06:51:33;99028.19;;;22.58;54.70
52719;BME280;38616;42.140;24.760;2023-06-10T06:53:58;99039.06;;;23.09;54.01
52719;BME280;38616;42.140;24.760;2023-06-10T06:56:24;99022.72;;;23.34;53.20
52719;BME280;38616;42.140;24.760;2023-06-10T06:58:52;99026.59;;;23.67;52.34
52719;BME280;38616;42.140;24.760;2023-06-10T07:01:17;99024.69;;;23.75;52.29
52719;BME280;38616;42.140;24.760;2023-06-10T07:03:43;99013.28;;;23.91;51.97
52719;BME280;38616;42.140;24.760;2023-06-10T07:06:08;99017.09;;;23.23;52.99
52719;BME280;38616;42.140;24.760;2023-06-10T07:08:33;99017.50;;;23.25;53.17
52719;BME280;38616;42.140;24.760;2023-06-10T07:10:59;99012.41;;;23.31;53.37
52719;BME280;38616;42.140;24.760;2023-06-10T07:13:24;99013.22;;;22.97;53.84
52719;BME280;38616;42.140;24.760;2023-06-10T07:15:50;99014.06;;;23.36;53.49
52719;BME280;38616;42.140;24.760;2023-06-10T07:18:15;99002.84;;;23.25;53.28
52719;BME280;38616;42.140;24.760;2023-06-10T07:20:42;99014.16;;;23.50;52.95
52719;BME280;38616;42.140;24.760;2023-06-10T07:23:08;99011.16;;;23.70;52.09
52719;BME280;38616;42.140;24.760;2023-06-10T07:25:33;99005.63;;;23.70;52.38
52719;BME280;38616;42.140;24.760;2023-06-10T07:27:58;99004.03;;;23.69;52.50
52719;BME280;38616;42.140;24.760;2023-06-10T07:30:24;98994.56;;;23.73;52.50
52719;BME280;38616;42.140;24.760;2023-06-10T07:32:49;98996.13;;;23.71;52.59
52719;BME280;38616;42.140;24.760;2023-06-10T07:35:16;98998.66;;;23.90;52.61
52719;BME280;38616;42.140;24.760;2023-06-10T07:37:42;98999.13;;;24.00;51.84
52719;BME280;38616;42.140;24.760;2023-06-10T07:40:08;99001.94;;;24.03;51.10
52719;BME280;38616;42.140;24.760;2023-06-10T07:42:36;99001.97;;;24.11;51.84
52719;BME280;38616;42.140;24.760;2023-06-10T07:45:03;98999.56;;;24.05;52.08
52719;BME280;38616;42.140;24.760;2023-06-10T07:47:29;98999.66;;;24.20;51.95
52719;BME280;38616;42.140;24.760;2023-06-10T07:49:55;98992.19;;;24.31;50.91
52719;BME280;38616;42.140;24.760;2023-06-10T07:52:20;98992.19;;;24.31;51.03
52719;BME280;38616;42.140;24.760;2023-06-10T07:54:45;98989.78;;;24.26;49.81
52719;BME280;38616;42.140;24.760;2023-06-10T07:57:11;99001.47;;;23.98;50.55
52719;BME280;38616;42.140;24.760;2023-06-10T07:59:38;98990.13;;;24.17;49.67
52719;BME280;38616;42.140;24.760;2023-06-10T08:02:03;98991.41;;;24.38;49.49
52719;BME280;38616;42.140;24.760;2023-06-10T08:04:29;99001.78;;;24.45;49.44
52719;BME280;38616;42.140;24.760;2023-06-10T08:06:56;98996.72;;;24.69;49.22
52719;BME280;38616;42.140;24.760;2023-06-10T08:09:22;98995.59;;;24.84;48.96
52719;BME280;38616;42.140;24.760;2023-06-10T08:11:48;98988.91;;;25.03;49.10
52719;BME280;38616;42.140;24.760;2023-06-10T08:14:14;98987.75;;;25.30;48.50
52719;BME280;38616;42.140;24.760;2023-06-10T08:16:43;98983.44;;;25.50;48.14
52719;BME280;38616;42.140;24.760;2023-06-10T08:19:08;98980.22;;;25.41;47.17
52719;BME280;38616;42.140;24.760;2023-06-10T08:21:35;98972.31;;;25.50;47.30
52719;BME280;38616;42.140;24.760;2023-06-10T08:24:02;98985.03;;;25.44;46.53
52719;BME280;38616;42.140;24.760;2023-06-10T08:26:27;98990.50;;;24.97;46.75
52719;BME280;38616;42.140;24.760;2023-06-10T08:28:53;98979.81;;;25.25;47.60
52719;BME280;38616;42.140;24.760;2023-06-10T08:31:19;98973.09;;;25.62;47.40
52719;BME280;38616;42.140;24.760;2023-06-10T08:33:45;98985.41;;;25.79;46.22
52719;BME280;38616;42.140;24.760;2023-06-10T08:36:10;98981.03;;;25.85;46.07
52719;BME280;38616;42.140;24.760;2023-06-10T08:38:36;98980.59;;;26.01;45.42
52719;BME280;38616;42.140;24.760;2023-06-10T08:41:02;98981.03;;;25.81;44.98
52719;BME280;38616;42.140;24.760;2023-06-10T08:43:45;98977.03;;;25.97;45.02
52719;BME280;38616;42.140;24.760;2023-06-10T08:46:14;98977.88;;;25.69;44.75
52719;BME280;38616;42.140;24.760;2023-06-10T08:48:42;98972.69;;;25.81;45.15
52719;BME280;38616;42.140;24.760;2023-06-10T08:51:10;98969.50;;;25.90;44.48
52719;BME280;38616;42.140;24.760;2023-06-10T08:53:38;98961.50;;;26.25;44.28
52719;BME280;38616;42.140;24.760;2023-06-10T08:56:09;98957.88;;;26.32;43.97
52719;BME280;38616;42.140;24.760;2023-06-10T08:58:35;98958.66;;;26.36;43.79
52719;BME280;38616;42.140;24.760;2023-06-10T09:01:07;98951.22;;;25.78;44.13
52719;BME280;38616;42.140;24.760;2023-06-10T09:03:33;98957.53;;;26.04;43.45
52719;BME280;38616;42.140;24.760;2023-06-10T09:06:00;98945.59;;;26.18;43.03
52719;BME280;38616;42.140;24.760;2023-06-10T09:08:27;98951.88;;;26.48;42.14
52719;BME280;38616;42.140;24.760;2023-06-10T09:10:53;98949.94;;;26.30;41.56
52719;BME280;38616;42.140;24.760;2023-06-10T09:13:18;98944.03;;;26.06;41.86
52719;BME280;38616;42.140;24.760;2023-06-10T09:15:44;98951.22;;;25.86;40.62
52719;BME280;38616;42.140;24.760;2023-06-10T09:18:14;98946.03;;;25.95;40.74
52719;BME280;38616;42.140;24.760;2023-06-10T09:20:41;98944.78;;;26.21;40.19
52719;BME280;38616;42.140;24.760;2023-06-10T09:23:07;98939.59;;;26.31;39.74
52719;BME280;38616;42.140;24.760;2023-06-10T09:25:37;98945.94;;;26.38;39.71
52719;BME280;38616;42.140;24.760;2023-06-10T09:28:03;98938.66;;;26.63;39.09
52719;BME280;38616;42.140;24.760;2023-06-10T09:30:33;98933.84;;;26.74;38.89
52719;BME280;38616;42.140;24.760;2023-06-10T09:33:09;98933.78;;;26.81;38.11
52719;BME280;38616;42.140;24.760;2023-06-10T09:35:35;98941.66;;;26.97;37.76
52719;BME280;38616;42.140;24.760;2023-06-10T09:38:03;98935.22;;;27.08;37.97
52719;BME280;38616;42.140;24.760;2023-06-10T09:40:28;98930.78;;;27.18;37.66
52719;BME280;38616;42.140;24.760;2023-06-10T09:42:59;98936.69;;;27.27;37.87
52719;BME280;38616;42.140;24.760;2023-06-10T09:45:29;98935.06;;;27.29;38.57
52719;BME280;38616;42.140;24.760;2023-06-10T09:47:55;98926.63;;;27.40;39.12
52719;BME280;38616;42.140;24.760;2023-06-10T09:50:21;98938.09;;;27.46;37.93
52719;BME280;38616;42.140;24.760;2023-06-10T09:52:47;98941.72;;;27.43;37.46
52719;BME280;38616;42.140;24.760;2023-06-10T09:55:17;98948.13;;;26.83;41.01
52719;BME280;38616;42.140;24.760;2023-06-10T09:57:43;98954.00;;;25.78;45.50
52719;BME280;38616;42.140;24.760;2023-06-10T10:00:13;98944.47;;;25.21;47.24
52719;BME280;38616;42.140;24.760;2023-06-10T10:02:52;98948.03;;;25.07;47.41
52719;BME280;38616;42.140;24.760;2023-06-10T10:05:20;98952.34;;;24.79;47.44
52719;BME280;38616;42.140;24.760;2023-06-10T10:07:47;98952.38;;;24.87;47.76
52719;BME280;38616;42.140;24.760;2023-06-10T10:10:14;98948.03;;;24.93;47.54
52719;BME280;38616;42.140;24.760;2023-06-10T10:12:40;98949.22;;;25.10;47.19
52719;BME280;38616;42.140;24.760;2023-06-10T10:15:07;98943.25;;;24.97;46.85
52719;BME280;38616;42.140;24.760;2023-06-10T10:17:36;98945.63;;;24.99;47.16
52719;BME280;38616;42.140;24.760;2023-06-10T10:20:04;98947.97;;;24.82;47.44
52719;BME280;38616;42.140;24.760;2023-06-10T10:22:37;98946.41;;;24.85;47.01
52719;BME280;38616;42.140;24.760;2023-06-10T10:25:11;98944.84;;;24.98;46.41
52719;BME280;38616;42.140;24.760;2023-06-10T10:28:07;98946.06;;;25.15;46.67
52719;BME280;38616;42.140;24.760;2023-06-10T10:30:39;98933.34;;;25.25;46.35
52719;BME280;38616;42.140;24.760;2023-06-10T10:33:51;98915.09;;;25.13;45.84
52719;BME280;38616;42.140;24.760;2023-06-10T10:35:57;98932.94;;;25.23;46.02
52719;BME280;38616;42.140;24.760;2023-06-10T10:38:23;98931.41;;;25.51;45.98
52719;BME280;38616;42.140;24.760;2023-06-10T10:40:50;98928.22;;;25.38;45.48
52719;BME280;38616;42.140;24.760;2023-06-10T10:43:17;98926.63;;;25.55;44.48
52719;BME280;38616;42.140;24.760;2023-06-10T10:45:46;98928.97;;;25.71;45.27
52719;BME280;38616;42.140;24.760;2023-06-10T10:48:23;98933.34;;;25.72;44.41
52719;BME280;38616;42.140;24.760;2023-06-10T10:50:56;98923.38;;;26.00;44.01
52719;BME280;38616;42.140;24.760;2023-06-10T10:53:23;98926.50;;;26.13;43.58
52719;BME280;38616;42.140;24.760;2023-06-10T10:58:30;98928.38;;;26.52;42.60
52719;BME280;38616;42.140;24.760;2023-06-10T11:00:57;98918.31;;;26.69;41.73
52719;BME280;38616;42.140;24.760;2023-06-10T11:03:27;98928.13;;;26.03;42.13
52719;BME280;38616;42.140;24.760;2023-06-10T11:05:57;98934.16;;;25.80;42.38
52719;BME280;38616;42.140;24.760;2023-06-10T11:11:35;98918.63;;;26.01;41.84
52719;BME280;38616;42.140;24.760;2023-06-10T11:14:26;98911.00;;;26.23;41.60
52719;BME280;38616;42.140;24.760;2023-06-10T11:16:56;98915.78;;;26.11;41.92
52719;BME280;38616;42.140;24.760;2023-06-10T11:19:49;98919.75;;;26.10;42.49
52719;BME280;38616;42.140;24.760;2023-06-10T11:22:17;98911.91;;;25.65;43.81
52719;BME280;38616;42.140;24.760;2023-06-10T11:24:50;98919.88;;;25.13;45.02
52719;BME280;38616;42.140;24.760;2023-06-10T11:27:23;98908.34;;;25.07;45.55
52719;BME280;38616;42.140;24.760;2023-06-10T11:32:31;98906.78;;;25.49;44.38
52719;BME280;38616;42.140;24.760;2023-06-10T11:34:57;98903.16;;;25.67;43.50
52719;BME280;38616;42.140;24.760;2023-06-10T11:37:23;98897.63;;;25.63;43.56
52719;BME280;38616;42.140;24.760;2023-06-10T11:39:55;98898.31;;;26.00;42.45
52719;BME280;38616;42.140;24.760;2023-06-10T11:42:26;98899.63;;;25.48;43.05
52719;BME280;38616;42.140;24.760;2023-06-10T11:44:53;98900.00;;;25.36;43.77
52719;BME280;38616;42.140;24.760;2023-06-10T11:47:19;98899.59;;;25.66;42.87
52719;BME280;38616;42.140;24.760;2023-06-10T11:49:46;98883.31;;;25.65;43.05
52719;BME280;38616;42.140;24.760;2023-06-10T11:52:26;98873.31;;;25.86;42.56
52719;BME280;38616;42.140;24.760;2023-06-10T11:54:55;98872.16;;;25.79;42.21
52719;BME280;38616;42.140;24.760;2023-06-10T11:57:21;98888.81;;;25.87;42.23
52719;BME280;38616;42.140;24.760;2023-06-10T11:59:46;98871.75;;;25.77;41.70
52719;BME280;38616;42.140;24.760;2023-06-10T12:02:16;98873.69;;;25.95;41.79
52719;BME280;38616;42.140;24.760;2023-06-10T12:04:42;98866.69;;;26.54;41.46
52719;BME280;38616;42.140;24.760;2023-06-10T12:07:07;98865.78;;;26.75;40.13
52719;BME280;38616;42.140;24.760;2023-06-10T12:09:33;98867.81;;;26.67;40.34
52719;BME280;38616;42.140;24.760;2023-06-10T12:12:01;98857.25;;;26.40;40.56
52719;BME280;38616;42.140;24.760;2023-06-10T12:14:49;98867.28;;;26.20;41.66
52719;BME280;38616;42.140;24.760;2023-06-10T12:17:15;98851.53;;;26.62;40.73
52719;BME280;38616;42.140;24.760;2023-06-10T12:19:40;98860.41;;;27.03;40.48
52719;BME280;38616;42.140;24.760;2023-06-10T12:22:06;98867.09;;;27.16;41.04
52719;BME280;38616;42.140;24.760;2023-06-10T12:24:31;98871.41;;;27.24;41.38
52719;BME280;38616;42.140;24.760;2023-06-10T12:26:57;98853.84;;;27.27;41.58
52719;BME280;38616;42.140;24.760;2023-06-10T12:29:24;98855.38;;;27.36;41.81
52719;BME280;38616;42.140;24.760;2023-06-10T12:34:28;98849.69;;;27.43;41.39
52719;BME280;38616;42.140;24.760;2023-06-10T12:36:54;98856.97;;;27.33;41.32
52719;BME280;38616;42.140;24.760;2023-06-10T12:39:19;98858.97;;;27.33;41.75
52719;BME280;38616;42.140;24.760;2023-06-10T12:41:48;98854.59;;;27.32;41.77
52719;BME280;38616;42.140;24.760;2023-06-10T12:44:15;98841.88;;;27.27;41.49
52719;BME280;38616;42.140;24.760;2023-06-10T12:46:40;98837.50;;;27.29;41.63
52719;BME280;38616;42.140;24.760;2023-06-10T12:49:06;98843.34;;;27.42;40.85
52719;BME280;38616;42.140;24.760;2023-06-10T12:51:31;98841.66;;;27.52;40.37
52719;BME280;38616;42.140;24.760;2023-06-10T12:53:56;98836.84;;;27.56;39.66
52719;BME280;38616;42.140;24.760;2023-06-10T12:56:22;98826.50;;;27.57;40.13
52719;BME280;38616;42.140;24.760;2023-06-10T12:58:49;98819.19;;;27.70;40.13
52719;BME280;38616;42.140;24.760;2023-06-10T13:01:14;98833.53;;;27.69;40.14
52719;BME280;38616;42.140;24.760;2023-06-10T13:03:40;98822.88;;;27.60;39.78